sensor_id;sensor_type;location;lat;lon;timestamp;pressure;altitude;pressure_sealevel;temperature;humidity
70200;BME280;57587;55.688;37.600;2023-12-22T00:00:56;97251.88;;;2.37;68.37
70200;BME280;57587;55.688;37.600;2023-12-22T00:03:24;97248.00;;;2.33;68.12
70200;BME280;57587;55.688;37.600;2023-12-22T00:05:51;97252.91;;;2.36;68.01
70200;BME280;57587;55.688;37.600;2023-12-22T00:08:18;97240.03;;;2.26;67.81
70200;BME280;57587;55.688;37.600;2023-12-22T00:10:45;97232.34;;;2.31;67.78
70200;BME280;57587;55.688;37.600;2023-12-22T00:13:12;97237.44;;;2.33;67.75
70200;BME280;57587;55.688;37.600;2023-12-22T00:15:40;97244.16;;;2.36;67.80
70200;BME280;57587;55.688;37.600;2023-12-22T00:18:07;97242.50;;;2.35;67.53
70200;BME280;57587;55.688;37.600;2023-12-22T00:20:34;97234.09;;;2.24;67.22
70200;BME280;57587;55.688;37.600;2023-12-22T00:23:01;97232.22;;;2.18;67.79
70200;BME280;57587;55.688;37.600;2023-12-22T00:25:29;97233.47;;;2.22;67.85
70200;BME280;57587;55.688;37.600;2023-12-22T00:27:56;97234.03;;;2.18;67.07
70200;BME280;57587;55.688;37.600;2023-12-22T00:30:23;97243.22;;;2.22;67.10
70200;BME280;57587;55.688;37.600;2023-12-22T00:32:51;97240.88;;;2.12;67.48
70200;BME280;57587;55.688;37.600;2023-12-22T00:35:18;97224.03;;;2.13;66.70
70200;BME280;57587;55.688;37.600;2023-12-22T00:37:45;97217.31;;;2.11;67.00
70200;BME280;57587;55.688;37.600;2023-12-22T00:40:13;97217.13;;;2.12;66.75
70200;BME280;57587;55.688;37.600;2023-12-22T00:42:40;97219.56;;;2.14;67.11
70200;BME280;57587;55.688;37.600;2023-12-22T00:45:07;97217.56;;;2.16;66.83
70200;BME280;57587;55.688;37.600;2023-12-22T00:47:35;97221.84;;;2.17;66.75
70200;BME280;57587;55.688;37.600;2023-12-22T00:50:03;97209.59;;;2.09;66.57
70200;BME280;57587;55.688;37.600;2023-12-22T00:52:31;97214.59;;;2.04;66.56
70200;BME280;57587;55.688;37.600;2023-12-22T00:54:59;97208.22;;;2.13;66.36
70200;BME280;57587;55.688;37.600;2023-12-22T00:57:29;97213.84;;;2.10;66.43
70200;BME280;57587;55.688;37.600;2023-12-22T00:59:57;97206.22;;;2.15;65.98
70200;BME280;57587;55.688;37.600;2023-12-22T01:02:24;97206.22;;;2.15;65.95
70200;BME280;57587;55.688;37.600;2023-12-22T01:04:51;97203.84;;;2.20;66.15
70200;BME280;57587;55.688;37.600;2023-12-22T01:07:18;97210.72;;;2.21;66.01
70200;BME280;57587;55.688;37.600;2023-12-22T01:09:45;97207.84;;;2.16;65.97
70200;BME280;57587;55.688;37.600;2023-12-22T01:12:13;97203.69;;;2.07;65.81
70200;BME280;57587;55.688;37.600;2023-12-22T01:14:40;97211.00;;;2.05;66.37
70200;BME280;57587;55.688;37.600;2023-12-22T01:17:07;97211.59;;;2.07;66.17
70200;BME280;57587;55.688;37.600;2023-12-22T01:19:34;97215.25;;;2.06;66.54
70200;BME280;57587;55.688;37.600;2023-12-22T01:22:01;97224.34;;;2.03;66.25
70200;BME280;57587;55.688;37.600;2023-12-22T01:24:29;97215.88;;;2.08;66.92
70200;BME280;57587;55.688;37.600;2023-12-22T01:26:56;97219.06;;;2.03;66.76
70200;BME280;57587;55.688;37.600;2023-12-22T01:29:23;97206.53;;;2.05;66.91
70200;BME280;57587;55.688;37.600;2023-12-22T01:31:50;97208.03;;;1.93;67.22
70200;BME280;57587;55.688;37.600;2023-12-22T01:34:17;97207.72;;;2.03;67.34
70200;BME280;57587;55.688;37.600;2023-12-22T01:36:44;97206.91;;;2.02;67.23
70200;BME280;57587;55.688;37.600;2023-12-22T01:39:12;97213.63;;;2.05;67.89
70200;BME280;57587;55.688;37.600;2023-12-22T01:41:39;97208.84;;;1.94;67.66
70200;BME280;57587;55.688;37.600;2023-12-22T01:44:06;97206.31;;;1.85;67.79
70200;BME280;57587;55.688;37.600;2023-12-22T01:46:34;97215.22;;;1.84;68.37
70200;BME280;57587;55.688;37.600;2023-12-22T01:49:03;97203.78;;;1.77;68.98
70200;BME280;57587;55.688;37.600;2023-12-22T01:51:32;97196.13;;;1.82;68.66
70200;BME280;57587;55.688;37.600;2023-12-22T01:54:00;97187.59;;;1.80;68.54
70200;BME280;57587;55.688;37.600;2023-12-22T01:56:28;97200.25;;;1.70;68.70
70200;BME280;57587;55.688;37.600;2023-12-22T01:58:59;97202.06;;;1.70;69.29
70200;BME280;57587;55.688;37.600;2023-12-22T02:01:27;97199.25;;;1.71;68.96
70200;BME280;57587;55.688;37.600;2023-12-22T02:03:55;97206.97;;;1.73;69.15
70200;BME280;57587;55.688;37.600;2023-12-22T02:06:24;97199.25;;;1.71;68.96
70200;BME280;57587;55.688;37.600;2023-12-22T02:08:51;97192.09;;;1.65;68.98
70200;BME280;57587;55.688;37.600;2023-12-22T02:11:18;97190.94;;;1.53;69.25
70200;BME280;57587;55.688;37.600;2023-12-22T02:13:46;97181.22;;;1.53;69.63
70200;BME280;57587;55.688;37.600;2023-12-22T02:16:26;97188.53;;;1.58;69.69
70200;BME280;57587;55.688;37.600;2023-12-22T02:18:59;97191.91;;;1.67;69.60
70200;BME280;57587;55.688;37.600;2023-12-22T02:21:29;97186.81;;;1.65;69.32
70200;BME280;57587;55.688;37.600;2023-12-22T02:23:56;97169.03;;;1.52;68.78
70200;BME280;57587;55.688;37.600;2023-12-22T02:26:35;97179.66;;;1.59;69.32
70200;BME280;57587;55.688;37.600;2023-12-22T02:29:07;97174.38;;;1.59;69.44
70200;BME280;57587;55.688;37.600;2023-12-22T02:31:42;97171.25;;;1.70;69.39
70200;BME280;57587;55.688;37.600;2023-12-22T02:34:14;97168.50;;;1.78;68.83
70200;BME280;57587;55.688;37.600;2023-12-22T02:36:46;97169.91;;;1.74;69.16
70200;BME280;57587;55.688;37.600;2023-12-22T02:39:16;97173.41;;;1.81;69.20
70200;BME280;57587;55.688;37.600;2023-12-22T02:41:45;97170.03;;;1.88;68.94
70200;BME280;57587;55.688;37.600;2023-12-22T02:44:13;97177.16;;;1.72;69.01
70200;BME280;57587;55.688;37.600;2023-12-22T02:46:40;97167.63;;;1.71;69.42
70200;BME280;57587;55.688;37.600;2023-12-22T02:49:09;97171.72;;;1.74;69.21
70200;BME280;57587;55.688;37.600;2023-12-22T02:51:36;97156.06;;;1.72;69.13
70200;BME280;57587;55.688;37.600;2023-12-22T02:54:03;97149.66;;;1.60;69.33
70200;BME280;57587;55.688;37.600;2023-12-22T02:56:30;97157.31;;;1.55;69.84
70200;BME280;57587;55.688;37.600;2023-12-22T02:58:57;97154.94;;;1.60;69.82
70200;BME280;57587;55.688;37.600;2023-12-22T03:01:25;97152.69;;;1.42;69.73
70200;BME280;57587;55.688;37.600;2023-12-22T03:03:52;97148.13;;;1.51;70.14
70200;BME280;57587;55.688;37.600;2023-12-22T03:06:19;97142.78;;;1.44;70.31
70200;BME280;57587;55.688;37.600;2023-12-22T03:08:46;97161.53;;;1.34;70.17
70200;BME280;57587;55.688;37.600;2023-12-22T03:11:13;97155.16;;;1.44;70.23
70200;BME280;57587;55.688;37.600;2023-12-22T03:13:40;97161.09;;;1.16;70.68
70200;BME280;57587;55.688;37.600;2023-12-22T03:16:08;97147.28;;;1.14;71.07
70200;BME280;57587;55.688;37.600;2023-12-22T03:18:38;97145.47;;;1.14;71.43
70200;BME280;57587;55.688;37.600;2023-12-22T03:21:06;97129.41;;;1.24;71.46
70200;BME280;57587;55.688;37.600;2023-12-22T03:23:33;97148.34;;;1.34;70.87
70200;BME280;57587;55.688;37.600;2023-12-22T03:26:03;97143.19;;;1.26;70.89
70200;BME280;57587;55.688;37.600;2023-12-22T03:28:30;97138.94;;;1.25;71.19
70200;BME280;57587;55.688;37.600;2023-12-22T03:31:00;97151.16;;;1.33;70.76
70200;BME280;57587;55.688;37.600;2023-12-22T03:33:27;97141.72;;;1.38;71.05
70200;BME280;57587;55.688;37.600;2023-12-22T03:35:54;97147.16;;;1.52;70.69
70200;BME280;57587;55.688;37.600;2023-12-22T03:38:22;97154.28;;;1.36;70.71
70200;BME280;57587;55.688;37.600;2023-12-22T03:40:49;97156.25;;;1.49;70.42
70200;BME280;57587;55.688;37.600;2023-12-22T03:43:16;97147.97;;;1.52;70.22
70200;BME280;57587;55.688;37.600;2023-12-22T03:45:46;97144.03;;;1.48;69.79
70200;BME280;57587;55.688;37.600;2023-12-22T03:48:13;97151.78;;;1.50;69.67
70200;BME280;57587;55.688;37.600;2023-12-22T03:50:40;97144.34;;;1.38;69.82
70200;BME280;57587;55.688;37.600;2023-12-22T03:53:07;97140.25;;;1.36;70.08
70200;BME280;57587;55.688;37.600;2023-12-22T03:55:34;97141.63;;;1.47;70.14
70200;BME280;57587;55.688;37.600;2023-12-22T03:58:01;97132.81;;;1.40;69.96
70200;BME280;57587;55.688;37.600;2023-12-22T04:00:30;97139.34;;;1.44;69.54
70200;BME280;57587;55.688;37.600;2023-12-22T04:02:58;97124.56;;;1.43;69.90
70200;BME280;57587;55.688;37.600;2023-12-22T04:05:25;97137.50;;;1.59;69.67
70200;BME280;57587;55.688;37.600;2023-12-22T04:07:52;97124.66;;;1.34;70.01
70200;BME280;57587;55.688;37.600;2023-12-22T04:10:19;97121.97;;;1.13;70.13
70200;BME280;57587;55.688;37.600;2023-12-22T04:12:46;97128.84;;;1.14;70.24
70200;BME280;57587;55.688;37.600;2023-12-22T04:15:14;97121.06;;;1.06;70.70
70200;BME280;57587;55.688;37.600;2023-12-22T04:17:41;97118.69;;;1.11;70.32
70200;BME280;57587;55.688;37.600;2023-12-22T04:20:08;97122.41;;;1.02;70.59
70200;BME280;57587;55.688;37.600;2023-12-22T04:22:35;97113.63;;;0.95;70.75
70200;BME280;57587;55.688;37.600;2023-12-22T04:25:03;97110.09;;;0.87;71.05
70200;BME280;57587;55.688;37.600;2023-12-22T04:27:30;97116.34;;;0.86;70.89
70200;BME280;57587;55.688;37.600;2023-12-22T04:29:57;97105.94;;;0.78;70.81
70200;BME280;57587;55.688;37.600;2023-12-22T04:32:25;97099.72;;;0.86;71.33
70200;BME280;57587;55.688;37.600;2023-12-22T04:34:52;97102.81;;;0.89;70.33
70200;BME280;57587;55.688;37.600;2023-12-22T04:37:19;97103.81;;;0.88;70.35
70200;BME280;57587;55.688;37.600;2023-12-22T04:39:46;97091.19;;;0.99;70.66
70200;BME280;57587;55.688;37.600;2023-12-22T04:42:13;97084.38;;;0.89;70.36
70200;BME280;57587;55.688;37.600;2023-12-22T04:44:41;97076.69;;;0.88;70.90
70200;BME280;57587;55.688;37.600;2023-12-22T04:47:08;97072.50;;;0.94;70.62
70200;BME280;57587;55.688;37.600;2023-12-22T04:49:35;97082.03;;;0.95;70.26
70200;BME280;57587;55.688;37.600;2023-12-22T04:52:03;97080.47;;;1.00;70.12
70200;BME280;57587;55.688;37.600;2023-12-22T04:54:30;97077.88;;;0.85;69.82
70200;BME280;57587;55.688;37.600;2023-12-22T04:56:57;97076.25;;;0.84;70.09
70200;BME280;57587;55.688;37.600;2023-12-22T04:59:24;97077.50;;;0.88;70.13
70200;BME280;57587;55.688;37.600;2023-12-22T05:01:51;97074.59;;;0.83;70.61
70200;BME280;57587;55.688;37.600;2023-12-22T05:04:18;97081.88;;;0.81;70.84
70200;BME280;57587;55.688;37.600;2023-12-22T05:06:45;97083.88;;;0.79;70.84
70200;BME280;57587;55.688;37.600;2023-12-22T05:09:13;97081.06;;;0.81;70.68
70200;BME280;57587;55.688;37.600;2023-12-22T05:11:40;97091.84;;;0.86;70.20
70200;BME280;57587;55.688;37.600;2023-12-22T05:14:08;97078.59;;;0.79;70.50
70200;BME280;57587;55.688;37.600;2023-12-22T05:16:36;97069.06;;;0.78;70.58
70200;BME280;57587;55.688;37.600;2023-12-22T05:19:03;97104.91;;;0.79;70.67
70200;BME280;57587;55.688;37.600;2023-12-22T05:21:30;97084.22;;;0.76;70.77
70200;BME280;57587;55.688;37.600;2023-12-22T05:23:57;97069.72;;;0.65;71.04
70200;BME280;57587;55.688;37.600;2023-12-22T05:26:25;97073.06;;;0.74;70.86
70200;BME280;57587;55.688;37.600;2023-12-22T05:28:57;97080.22;;;0.80;70.83
70200;BME280;57587;55.688;37.600;2023-12-22T05:31:24;97096.38;;;0.77;70.63
70200;BME280;57587;55.688;37.600;2023-12-22T05:33:51;97080.50;;;0.71;71.33
70200;BME280;57587;55.688;37.600;2023-12-22T05:36:18;97084.59;;;0.73;71.23
70200;BME280;57587;55.688;37.600;2023-12-22T05:38:45;97083.94;;;0.71;70.98
70200;BME280;57587;55.688;37.600;2023-12-22T05:41:14;97110.38;;;0.63;71.33
70200;BME280;57587;55.688;37.600;2023-12-22T05:43:41;97105.47;;;0.60;71.52
70200;BME280;57587;55.688;37.600;2023-12-22T05:46:09;97098.31;;;0.54;71.87
70200;BME280;57587;55.688;37.600;2023-12-22T05:48:36;97085.69;;;0.64;71.55
70200;BME280;57587;55.688;37.600;2023-12-22T05:51:04;97104.09;;;0.79;71.55
70200;BME280;57587;55.688;37.600;2023-12-22T05:53:34;97102.13;;;0.81;70.98
70200;BME280;57587;55.688;37.600;2023-12-22T05:56:01;97082.03;;;0.80;70.82
70200;BME280;57587;55.688;37.600;2023-12-22T05:58:28;97137.50;;;0.78;70.73
70200;BME280;57587;55.688;37.600;2023-12-22T06:00:55;97089.50;;;0.76;71.38
70200;BME280;57587;55.688;37.600;2023-12-22T06:03:22;97081.97;;;0.58;71.71
70200;BME280;57587;55.688;37.600;2023-12-22T06:05:52;97135.75;;;0.56;71.51
70200;BME280;57587;55.688;37.600;2023-12-22T06:08:19;97075.78;;;0.51;71.95
70200;BME280;57587;55.688;37.600;2023-12-22T06:10:46;97083.50;;;0.53;72.10
70200;BME280;57587;55.688;37.600;2023-12-22T06:13:13;97092.94;;;0.62;71.93
70200;BME280;57587;55.688;37.600;2023-12-22T06:15:41;97095.84;;;0.67;71.66
70200;BME280;57587;55.688;37.600;2023-12-22T06:18:09;97109.38;;;0.64;71.84
70200;BME280;57587;55.688;37.600;2023-12-22T06:20:36;97091.31;;;0.61;72.07
70200;BME280;57587;55.688;37.600;2023-12-22T06:23:03;97105.09;;;0.63;71.58
70200;BME280;57587;55.688;37.600;2023-12-22T06:25:31;97129.59;;;0.49;72.38
70200;BME280;57587;55.688;37.600;2023-12-22T06:27:58;97113.53;;;0.43;72.74
70200;BME280;57587;55.688;37.600;2023-12-22T06:30:25;97103.72;;;0.52;72.72
70200;BME280;57587;55.688;37.600;2023-12-22T06:32:53;97101.84;;;0.61;72.58
70200;BME280;57587;55.688;37.600;2023-12-22T06:35:20;97112.00;;;0.64;72.38
70200;BME280;57587;55.688;37.600;2023-12-22T06:37:51;97095.03;;;0.66;72.16
70200;BME280;57587;55.688;37.600;2023-12-22T06:40:19;97101.56;;;0.71;71.93
70200;BME280;57587;55.688;37.600;2023-12-22T06:42:46;97098.47;;;0.67;72.01
70200;BME280;57587;55.688;37.600;2023-12-22T06:45:13;97108.91;;;0.75;71.29
70200;BME280;57587;55.688;37.600;2023-12-22T06:47:40;97108.19;;;0.81;71.37
70200;BME280;57587;55.688;37.600;2023-12-22T06:50:08;97108.13;;;0.75;71.26
70200;BME280;57587;55.688;37.600;2023-12-22T06:52:35;97100.03;;;0.76;71.68
70200;BME280;57587;55.688;37.600;2023-12-22T06:55:03;97115.53;;;0.86;71.81
70200;BME280;57587;55.688;37.600;2023-12-22T06:57:30;97106.81;;;0.85;71.19
70200;BME280;57587;55.688;37.600;2023-12-22T07:00:00;97103.66;;;0.90;71.18
70200;BME280;57587;55.688;37.600;2023-12-22T07:02:31;97122.53;;;0.94;71.16
70200;BME280;57587;55.688;37.600;2023-12-22T07:07:37;97110.91;;;0.88;71.53
70200;BME280;57587;55.688;37.600;2023-12-22T07:10:05;97112.38;;;0.90;70.97
70200;BME280;57587;55.688;37.600;2023-12-22T07:12:32;97114.88;;;0.99;70.94
70200;BME280;57587;55.688;37.600;2023-12-22T07:14:59;97119.69;;;0.95;70.64
70200;BME280;57587;55.688;37.600;2023-12-22T07:17:26;97119.91;;;0.94;70.80
70200;BME280;57587;55.688;37.600;2023-12-22T07:19:53;97097.31;;;0.84;70.95
70200;BME280;57587;55.688;37.600;2023-12-22T07:22:25;97113.63;;;0.95;70.41
70200;BME280;57587;55.688;37.600;2023-12-22T07:24:52;97122.84;;;1.05;70.18
70200;BME280;57587;55.688;37.600;2023-12-22T07:27:19;97108.06;;;1.04;70.17
70200;BME280;57587;55.688;37.600;2023-12-22T07:29:47;97095.25;;;1.16;70.51
70200;BME280;57587;55.688;37.600;2023-12-22T07:32:14;97095.63;;;1.13;69.55
70200;BME280;57587;55.688;37.600;2023-12-22T07:34:42;97107.41;;;1.17;69.78
70200;BME280;57587;55.688;37.600;2023-12-22T07:37:11;97113.31;;;1.19;69.24
70200;BME280;57587;55.688;37.600;2023-12-22T07:39:38;97103.16;;;1.16;69.44
70200;BME280;57587;55.688;37.600;2023-12-22T07:42:05;97093.34;;;1.10;68.92
70200;BME280;57587;55.688;37.600;2023-12-22T07:44:33;97095.06;;;1.18;69.07
70200;BME280;57587;55.688;37.600;2023-12-22T07:47:00;97093.34;;;1.25;68.46
70200;BME280;57587;55.688;37.600;2023-12-22T07:49:30;97113.69;;;1.16;68.52
70200;BME280;57587;55.688;37.600;2023-12-22T07:51:59;97116.13;;;1.18;68.03
70200;BME280;57587;55.688;37.600;2023-12-22T07:54:29;97091.09;;;1.07;68.17
70200;BME280;57587;55.688;37.600;2023-12-22T07:56:56;97094.19;;;0.96;68.76
70200;BME280;57587;55.688;37.600;2023-12-22T07:59:23;97123.78;;;0.98;68.26
70200;BME280;57587;55.688;37.600;2023-12-22T08:01:58;97086.09;;;1.12;68.64
70200;BME280;57587;55.688;37.600;2023-12-22T08:04:25;97091.13;;;1.28;67.76
70200;BME280;57587;55.688;37.600;2023-12-22T08:06:52;97085.53;;;1.53;67.12
70200;BME280;57587;55.688;37.600;2023-12-22T08:09:20;97078.75;;;1.65;66.15
70200;BME280;57587;55.688;37.600;2023-12-22T08:11:47;97075.84;;;2.03;64.95
70200;BME280;57587;55.688;37.600;2023-12-22T08:14:14;97059.09;;;2.45;64.11
70200;BME280;57587;55.688;37.600;2023-12-22T08:16:41;97065.03;;;2.89;62.47
70200;BME280;57587;55.688;37.600;2023-12-22T08:19:10;97045.03;;;3.28;61.47
70200;BME280;57587;55.688;37.600;2023-12-22T08:21:37;97052.03;;;3.75;59.11
70200;BME280;57587;55.688;37.600;2023-12-22T08:24:12;97051.84;;;3.90;58.65
70200;BME280;57587;55.688;37.600;2023-12-22T08:26:49;97063.66;;;4.34;57.39
70200;BME280;57587;55.688;37.600;2023-12-22T08:29:16;97037.09;;;4.60;56.26
70200;BME280;57587;55.688;37.600;2023-12-22T08:31:44;97038.75;;;4.55;55.39
70200;BME280;57587;55.688;37.600;2023-12-22T08:34:11;97043.25;;;4.41;55.63
70200;BME280;57587;55.688;37.600;2023-12-22T08:36:38;97056.72;;;4.20;56.19
70200;BME280;57587;55.688;37.600;2023-12-22T08:39:06;97041.47;;;4.22;56.55
70200;BME280;57587;55.688;37.600;2023-12-22T08:41:35;97045.88;;;4.54;55.86
70200;BME280;57587;55.688;37.600;2023-12-22T08:44:06;97040.41;;;4.36;55.42
70200;BME280;57587;55.688;37.600;2023-12-22T08:46:34;97041.84;;;4.32;56.50
70200;BME280;57587;55.688;37.600;2023-12-22T08:49:02;97024.91;;;5.04;54.52
70200;BME280;57587;55.688;37.600;2023-12-22T08:51:30;97032.50;;;4.94;54.71
70200;BME280;57587;55.688;37.600;2023-12-22T08:53:58;97033.09;;;4.38;55.28
70200;BME280;57587;55.688;37.600;2023-12-22T08:56:26;97033.13;;;3.85;56.95
70200;BME280;57587;55.688;37.600;2023-12-22T08:58:54;97029.41;;;3.46;58.27
70200;BME280;57587;55.688;37.600;2023-12-22T09:01:22;97033.50;;;3.49;58.60
70200;BME280;57587;55.688;37.600;2023-12-22T09:03:50;97027.66;;;2.98;59.39
70200;BME280;57587;55.688;37.600;2023-12-22T09:06:18;97034.16;;;2.96;59.61
70200;BME280;57587;55.688;37.600;2023-12-22T09:08:46;97042.88;;;2.90;59.58
70200;BME280;57587;55.688;37.600;2023-12-22T09:11:16;97032.13;;;2.91;60.43
70200;BME280;57587;55.688;37.600;2023-12-22T09:13:43;97049.16;;;2.89;60.22
70200;BME280;57587;55.688;37.600;2023-12-22T09:16:11;97033.63;;;2.72;61.07
70200;BME280;57587;55.688;37.600;2023-12-22T09:18:42;97030.97;;;2.66;61.33
70200;BME280;57587;55.688;37.600;2023-12-22T09:21:09;97029.25;;;2.45;61.42
70200;BME280;57587;55.688;37.600;2023-12-22T09:23:37;97034.34;;;2.53;61.39
70200;BME280;57587;55.688;37.600;2023-12-22T09:26:04;97030.94;;;2.59;61.23
70200;BME280;57587;55.688;37.600;2023-12-22T09:28:32;97024.72;;;2.73;60.74
70200;BME280;57587;55.688;37.600;2023-12-22T09:30:59;97028.91;;;2.54;61.03
70200;BME280;57587;55.688;37.600;2023-12-22T09:33:26;97043.94;;;2.26;61.97
70200;BME280;57587;55.688;37.600;2023-12-22T09:35:53;97036.22;;;2.24;61.90
70200;BME280;57587;55.688;37.600;2023-12-22T09:38:21;97025.00;;;2.16;62.04
70200;BME280;57587;55.688;37.600;2023-12-22T09:40:51;97005.75;;;2.22;62.46
70200;BME280;57587;55.688;37.600;2023-12-22T09:43:19;97009.03;;;1.96;62.88
70200;BME280;57587;55.688;37.600;2023-12-22T09:45:48;97023.38;;;1.87;63.00
70200;BME280;57587;55.688;37.600;2023-12-22T09:48:20;97013.91;;;1.92;62.97
70200;BME280;57587;55.688;37.600;2023-12-22T09:50:54;97013.97;;;1.77;63.07
70200;BME280;57587;55.688;37.600;2023-12-22T09:53:24;97010.97;;;1.80;63.67
70200;BME280;57587;55.688;37.600;2023-12-22T09:55:53;97008.19;;;1.67;63.37
70200;BME280;57587;55.688;37.600;2023-12-22T09:58:21;97023.91;;;1.54;64.28
70200;BME280;57587;55.688;37.600;2023-12-22T10:00:50;97025.41;;;1.63;64.38
70200;BME280;57587;55.688;37.600;2023-12-22T10:03:19;97010.78;;;1.60;64.37
70200;BME280;57587;55.688;37.600;2023-12-22T10:05:47;96997.16;;;1.57;63.83
70200;BME280;57587;55.688;37.600;2023-12-22T10:08:15;97003.34;;;1.43;64.58
70200;BME280;57587;55.688;37.600;2023-12-22T10:10:44;97013.50;;;1.46;64.21
70200;BME280;57587;55.688;37.600;2023-12-22T10:13:14;96977.22;;;1.48;64.55
70200;BME280;57587;55.688;37.600;2023-12-22T10:15:43;96995.56;;;1.56;64.18
70200;BME280;57587;55.688;37.600;2023-12-22T10:18:12;96991.94;;;1.64;64.22
70200;BME280;57587;55.688;37.600;2023-12-22T10:20:44;96988.66;;;1.55;64.42
70200;BME280;57587;55.688;37.600;2023-12-22T10:23:12;96989.91;;;1.59;64.30
70200;BME280;57587;55.688;37.600;2023-12-22T10:25:40;96990.31;;;1.63;64.22
70200;BME280;57587;55.688;37.600;2023-12-22T10:28:10;96991.13;;;1.63;63.60
70200;BME280;57587;55.688;37.600;2023-12-22T10:30:37;96977.19;;;1.69;64.10
70200;BME280;57587;55.688;37.600;2023-12-22T10:33:06;96980.94;;;1.53;64.18
70200;BME280;57587;55.688;37.600;2023-12-22T10:35:34;96976.28;;;1.55;64.37
70200;BME280;57587;55.688;37.600;2023-12-22T10:38:01;96986.63;;;1.57;64.06
70200;BME280;57587;55.688;37.600;2023-12-22T10:40:30;96986.94;;;1.47;64.38
70200;BME280;57587;55.688;37.600;2023-12-22T10:42:58;96973.47;;;1.35;64.94
70200;BME280;57587;55.688;37.600;2023-12-22T10:45:25;96963.56;;;1.37;65.14
70200;BME280;57587;55.688;37.600;2023-12-22T10:47:54;96968.13;;;1.50;64.87
70200;BME280;57587;55.688;37.600;2023-12-22T10:50:21;96991.78;;;1.44;64.72
70200;BME280;57587;55.688;37.600;2023-12-22T10:52:51;96960.56;;;1.19;64.84
70200;BME280;57587;55.688;37.600;2023-12-22T10:55:19;96950.50;;;1.29;65.05
70200;BME280;57587;55.688;37.600;2023-12-22T10:57:46;96946.19;;;1.22;64.87
70200;BME280;57587;55.688;37.600;2023-12-22T11:00:20;96962.22;;;1.27;65.44
70200;BME280;57587;55.688;37.600;2023-12-22T11:02:48;96955.03;;;1.14;65.25
70200;BME280;57587;55.688;37.600;2023-12-22T11:05:18;96956.38;;;1.25;65.16
70200;BME280;57587;55.688;37.600;2023-12-22T11:07:48;96949.31;;;1.10;65.19
70200;BME280;57587;55.688;37.600;2023-12-22T11:10:20;96958.03;;;1.11;65.50
70200;BME280;57587;55.688;37.600;2023-12-22T11:12:47;96948.50;;;1.10;65.79
70200;BME280;57587;55.688;37.600;2023-12-22T11:15:18;96944.94;;;1.18;65.49
70200;BME280;57587;55.688;37.600;2023-12-22T11:17:48;96944.50;;;1.14;65.55
70200;BME280;57587;55.688;37.600;2023-12-22T11:20:19;96950.94;;;1.11;65.43
70200;BME280;57587;55.688;37.600;2023-12-22T11:22:54;96954.97;;;1.07;66.05
70200;BME280;57587;55.688;37.600;2023-12-22T11:25:22;96956.16;;;1.05;66.12
70200;BME280;57587;55.688;37.600;2023-12-22T11:27:52;96956.53;;;1.02;65.84
70200;BME280;57587;55.688;37.600;2023-12-22T11:30:22;96953.22;;;0.93;66.88
70200;BME280;57587;55.688;37.600;2023-12-22T11:32:50;96956.34;;;0.82;66.61
70200;BME280;57587;55.688;37.600;2023-12-22T11:35:17;96957.50;;;0.79;67.08
70200;BME280;57587;55.688;37.600;2023-12-22T11:37:45;96948.25;;;0.83;66.86
70200;BME280;57587;55.688;37.600;2023-12-22T11:40:14;96946.63;;;0.82;67.14
70200;BME280;57587;55.688;37.600;2023-12-22T11:42:48;96933.09;;;0.85;67.42
70200;BME280;57587;55.688;37.600;2023-12-22T11:45:19;96939.78;;;0.88;66.88
70200;BME280;57587;55.688;37.600;2023-12-22T11:47:50;96942.47;;;0.73;67.72
70200;BME280;57587;55.688;37.600;2023-12-22T11:50:30;96943.72;;;0.77;67.74
70200;BME280;57587;55.688;37.600;2023-12-22T11:53:17;96942.03;;;0.69;67.93
70200;BME280;57587;55.688;37.600;2023-12-22T11:56:06;96937.31;;;0.65;68.37
70200;BME280;57587;55.688;37.600;2023-12-22T11:58:42;96936.03;;;0.76;68.11
70200;BME280;57587;55.688;37.600;2023-12-22T12:01:12;96939.69;;;0.60;68.23
70200;BME280;57587;55.688;37.600;2023-12-22T12:03:52;96941.03;;;0.56;68.22
70200;BME280;57587;55.688;37.600;2023-12-22T12:08:54;96953.97;;;0.51;69.22
70200;BME280;57587;55.688;37.600;2023-12-22T12:11:22;96941.69;;;0.58;69.14
70200;BME280;57587;55.688;37.600;2023-12-22T12:13:50;96947.59;;;0.60;69.07
70200;BME280;57587;55.688;37.600;2023-12-22T12:16:21;96963.59;;;0.43;69.15
70200;BME280;57587;55.688;37.600;2023-12-22T12:18:50;96954.97;;;0.35;69.82
70200;BME280;57587;55.688;37.600;2023-12-22T12:21:20;96963.41;;;0.30;69.80
70200;BME280;57587;55.688;37.600;2023-12-22T12:23:48;96952.88;;;0.30;69.95
70200;BME280;57587;55.688;37.600;2023-12-22T12:26:17;96947.34;;;0.40;70.00
70200;BME280;57587;55.688;37.600;2023-12-22T12:28:45;96935.63;;;0.42;69.95
70200;BME280;57587;55.688;37.600;2023-12-22T12:31:13;96926.75;;;0.43;69.80
70200;BME280;57587;55.688;37.600;2023-12-22T12:33:40;96928.91;;;0.40;69.84
70200;BME280;57587;55.688;37.600;2023-12-22T12:36:13;96933.13;;;0.34;70.09
70200;BME280;57587;55.688;37.600;2023-12-22T12:38:48;96927.06;;;0.19;70.84
70200;BME280;57587;55.688;37.600;2023-12-22T12:41:30;96906.28;;;0.24;70.89
70200;BME280;57587;55.688;37.600;2023-12-22T12:44:03;96911.91;;;0.21;71.09
70200;BME280;57587;55.688;37.600;2023-12-22T12:49:05;96908.38;;;0.29;70.78
70200;BME280;57587;55.688;37.600;2023-12-22T12:51:39;96908.19;;;0.30;71.05
70200;BME280;57587;55.688;37.600;2023-12-22T12:54:08;96905.81;;;0.35;71.23
70200;BME280;57587;55.688;37.600;2023-12-22T12:56:42;96897.13;;;0.35;70.83
70200;BME280;57587;55.688;37.600;2023-12-22T12:59:14;96898.66;;;0.29;71.19
70200;BME280;57587;55.688;37.600;2023-12-22T13:01:44;96909.19;;;0.29;71.33
70200;BME280;57587;55.688;37.600;2023-12-22T13:04:12;96904.94;;;0.28;71.82
70200;BME280;57587;55.688;37.600;2023-12-22T13:06:50;96905.19;;;0.33;71.53
70200;BME280;57587;55.688;37.600;2023-12-22T13:09:19;96900.00;;;0.40;71.24
70200;BME280;57587;55.688;37.600;2023-12-22T13:11:46;96907.16;;;0.46;71.15
70200;BME280;57587;55.688;37.600;2023-12-22T13:14:24;96893.56;;;0.42;71.67